Home > Products > Valid Products > MTR

000
SAUS45 KLKN 021855
MTRP68
METAR KP68 021853Z AUTO 36007KT 00/M02 A2971 RMK AO1 SLP056 P0004
T00001022





000
SAUS45 KLKN 021755
MTRP68
METAR KP68 021753Z AUTO 01006KT M01/M03 A2973 RMK AO1 SLP061 P0008
60014 T10061028 11006 21022 58002





000
SAUS45 KLKN 021755
MTRP68
METAR KP68 021753Z AUTO 01006KT M01/M03 A2973 RMK AO1 SLP061 P0008
60014 T10061028 11006 21022 58002





000
SAUS45 KLKN 021654
MTRP68
METAR KP68 021653Z AUTO 01006KT M01/M03 A2974 RMK AO1 SLP065 P0005
T10111028





000
SAUS45 KLKN 021654
MTRP68
METAR KP68 021653Z AUTO 01006KT M01/M03 A2974 RMK AO1 SLP065 P0005
T10111028





000
SAUS45 KLKN 021555
MTRP68
METAR KP68 021553Z AUTO 35005KT M01/M03 A2973 RMK AO1 SLP064
T10111033





000
SAUS45 KLKN 021555
MTRP68
METAR KP68 021553Z AUTO 35005KT M01/M03 A2973 RMK AO1 SLP064
T10111033





000
SAUS45 KLKN 021455
MTRP68
METAR KP68 021453Z AUTO 00000KT M02/M03 A2973 RMK AO1 SLP064 60001
T10171033 56011





000
SAUS45 KLKN 021354
MTRP68
METAR KP68 021353Z AUTO 00000KT M02/M03 A2974 RMK AO1 SLP068 P0001
T10171033





000
SAUS45 KLKN 021255
MTRP68
METAR KP68 021253Z AUTO 30003KT M01/M03 A2975 RMK AO1 SLP064
T10111033





000
SAUS45 KLKN 021154
MTRP68
METAR KP68 021153Z AUTO 22003KT M01/M03 A2977 RMK AO1 SLP070
T10111033 10006 21011 56021





000
SAUS45 KLKN 021057 COR
MTRP68
METAR KP68 021053Z AUTO 00000KT M01/M03 A2977 RMK AO1 SLP070
T10111033





000
SAUS45 KLKN 021056 COR
MTRP68
METAR KP68 021053Z AUTO 00000KT M01/M03 A2977 RMK AO1 SLP070
T10111033





000
SAUS45 KLKN 021056 COR
MTRP68
METAR KP68 021053Z AUTO 00000KT M01/M03 A2977 RMK AO1 SLP070
T10111033





000
SAUS45 KLKN 021055 COR
MTRP68
METAR KP68 021053Z AUTO 00000KT M01/M03 A2977 RMK AO1 SLP070
T10111033





000
SAUS45 KLKN 021055 COR
MTRP68
METAR KP68 021053Z AUTO 00000KT M01/M03 A2977 RMK AO1 SLP070
T10111033





000
SAUS45 KLKN 020955
MTRP68
METAR KP68 020953Z AUTO 02003KT M01/M03 A2982 RMK AO1 SLP083
T10111033





000
SAUS45 KLKN 020955
MTRP68
METAR KP68 020953Z AUTO 02003KT M01/M03 A2982 RMK AO1 SLP083
T10111033





000
SAUS45 KLKN 020854
MTRP68
METAR KP68 020853Z AUTO 36004KT M01/M04 A2984 RMK AO1 PRESFR SLP093
T10111039 58021





000
SAUS45 KLKN 020854
MTRP68
METAR KP68 020853Z AUTO 36004KT M01/M04 A2984 RMK AO1 PRESFR SLP093
T10111039 58021





000
SAUS45 KLKN 020754
MTRP68
METAR KP68 020753Z AUTO 20005KT 00/M04 A2989 RMK AO1 SLP107
T00001039 400781033





000
SAUS45 KLKN 020655
MTRP68
METAR KP68 020653Z AUTO 21005KT 00/M04 A2991 RMK AO1 SLP120
T00001039





000
SAUS45 KLKN 020655
MTRP68
METAR KP68 020653Z AUTO 21005KT 00/M04 A2991 RMK AO1 SLP120
T00001039





000
SAUS45 KLKN 020555
MTRP68
METAR KP68 020553Z AUTO VRB03KT 00/M03 A2992 RMK AO1 SLP124
T00001033 10044 21006 58005





000
SAUS45 KLKN 020454
MTRP68
METAR KP68 020453Z AUTO 17008KT 02/M03 A2993 RMK AO1 SLP129
T00171033





000
SAUS45 KLKN 020454
MTRP68
METAR KP68 020453Z AUTO 17008KT 02/M03 A2993 RMK AO1 SLP129
T00171033





000
SAUS45 KLKN 020354
MTRP68
METAR KP68 020353Z AUTO 21004KT 01/M04 A2995 RMK AO1 SLP144
T00061039





000
SAUS45 KLKN 020354
MTRP68
METAR KP68 020353Z AUTO 21004KT 01/M04 A2995 RMK AO1 SLP144
T00061039





000
SAUS45 KLKN 020255
MTRP68
METAR KP68 020253Z AUTO 00000KT 01/M04 A2994 RMK AO1 SLP138
T00111044 58004





000
SAUS45 KLKN 020154
MTRP68
METAR KP68 020153Z AUTO 14004KT 02/M03 A2996 RMK AO1 SLP145
T00171033





000
SAUS45 KLKN 020154
MTRP68
METAR KP68 020153Z AUTO 14004KT 02/M03 A2996 RMK AO1 SLP145
T00171033





000
SAUS45 KLKN 020055
MTRP68
METAR KP68 020053Z AUTO 07008KT 04/M03 A2994 RMK AO1 SLP133
T00391033





000
SAUS45 KLKN 020055
MTRP68
METAR KP68 020053Z AUTO 07008KT 04/M03 A2994 RMK AO1 SLP133
T00391033





000
SAUS45 KLKN 012354
MTRP68
METAR KP68 012353Z AUTO 17010KT 04/M04 A2995 RMK AO1 SLP134
T00441039 10078 20017 56005





000
SAUS45 KLKN 012354
MTRP68
METAR KP68 012353Z AUTO 17010KT 04/M04 A2995 RMK AO1 SLP134
T00441039 10078 20017 56005





000
SAUS45 KLKN 012254
MTRP68
METAR KP68 012253Z AUTO 04/M04 A2996 RMK AO1 SLP136 T00441039





000
SAUS45 KLKN 012254
MTRP68
METAR KP68 012253Z AUTO 04/M04 A2996 RMK AO1 SLP136 T00441039





000
SAUS45 KLKN 012155
MTRP68
METAR KP68 012153Z AUTO 00000KT 06/M06 A2995 RMK AO1 SLP129
T00611061





000
SAUS45 KLKN 012155
MTRP68
METAR KP68 012153Z AUTO 00000KT 06/M06 A2995 RMK AO1 SLP129
T00611061





000
SAUS45 KLKN 012055
MTRP68
METAR KP68 012053Z AUTO 00000KT 05/M06 A2997 RMK AO1 SLP137
T00501056 58017





000
SAUS45 KLKN 011954
MTRP68
METAR KP68 011953Z AUTO VRB03KT 04/M04 A3000 RMK AO1 SLP151
T00391044





000
SAUS45 KLKN 011854
MTRP68
METAR KP68 011853Z AUTO 02004KT 03/M04 A3002 RMK AO1 SLP161
T00331039





000
SAUS45 KLKN 011854
MTRP68
METAR KP68 011853Z AUTO 02004KT 03/M04 A3002 RMK AO1 SLP161
T00331039





000
SAUS45 KLKN 011754
MTRP68
METAR KP68 011753Z AUTO 04003KT 02/M04 A3003 RMK AO1 SLP163
T00221044 10022 21033 51008





000
SAUS45 KLKN 011754
MTRP68
METAR KP68 011753Z AUTO 04003KT 02/M04 A3003 RMK AO1 SLP163
T00221044 10022 21033 51008





000
SAUS45 KLKN 011655
MTRP68
METAR KP68 011653Z AUTO 36004KT 00/M04 A3002 RMK AO1 SLP167
T00001039





000
SAUS45 KLKN 011655
MTRP68
METAR KP68 011653Z AUTO 36004KT 00/M04 A3002 RMK AO1 SLP167
T00001039





000
SAUS45 KLKN 011555
MTRP68
METAR KP68 011553Z AUTO 33004KT M02/M05 A3002 RMK AO1 SLP169
T10221050





000
SAUS45 KLKN 011455
MTRP68
METAR KP68 011453Z AUTO 00000KT M03/M06 A3000 RMK AO1 SLP165
T10281056 53014





000
SAUS45 KLKN 011455
MTRP68
METAR KP68 011453Z AUTO 00000KT M03/M06 A3000 RMK AO1 SLP165
T10281056 53014





000
SAUS45 KLKN 011354
MTRP68
METAR KP68 011353Z AUTO 36005KT M03/M05 A2998 RMK AO1 SLP156
T10281050





000
SAUS45 KLKN 011255
MTRP68
METAR KP68 011253Z AUTO 35004KT M02/M04 A2996 RMK AO1 SLP146
T10221039





000
SAUS45 KLKN 011255
MTRP68
METAR KP68 011253Z AUTO 35004KT M02/M04 A2996 RMK AO1 SLP146
T10221039





000
SAUS45 KLKN 011154
MTRP68
METAR KP68 011153Z AUTO 35005KT M02/M04 A2995 RMK AO1 SLP140
T10171039 11006 21022 51008





000
SAUS45 KLKN 011054
MTRP68
METAR KP68 011053Z AUTO 00000KT M02/M03 A2994 RMK AO1 SLP134
T10171033





000
SAUS45 KLKN 010954
MTRP68
METAR KP68 010953Z AUTO 36005KT M02/M04 A2994 RMK AO1 SLP132
T10171039





000
SAUS45 KLKN 010954
MTRP68
METAR KP68 010953Z AUTO 36005KT M02/M04 A2994 RMK AO1 SLP132
T10171039





000
SAUS45 KLKN 010855
MTRP68
METAR KP68 010853Z AUTO 00000KT M01/M03 A2992 RMK AO1 SLP126
T10111033 53014





000
SAUS45 KLKN 010855
MTRP68
METAR KP68 010853Z AUTO 00000KT M01/M03 A2992 RMK AO1 SLP126
T10111033 53014





000
SAUS45 KLKN 010755
MTRP68
METAR KP68 010753Z AUTO 34005KT M01/M03 A2990 RMK AO1 SLP121
T10111033 400391061





000
SAUS45 KLKN 010654
MTRP68
METAR KP68 010653Z AUTO 34004KT M01/M03 A2989 RMK AO1 SLP119
T10111033





000
SAUS45 KLKN 010654
MTRP68
METAR KP68 010653Z AUTO 34004KT M01/M03 A2989 RMK AO1 SLP119
T10111033





000
SAUS45 KLKN 010555
MTRP68
METAR KP68 010553Z AUTO 34008KT M01/M03 A2987 RMK AO1 SLP116
T10061028 10022 21011 53022





000
SAUS45 KLKN 010555
MTRP68
METAR KP68 010553Z AUTO 34008KT M01/M03 A2987 RMK AO1 SLP116
T10061028 10022 21011 53022





000
SAUS45 KLKN 010454
MTRP68
METAR KP68 010453Z AUTO 00000KT 00/M02 A2984 RMK AO1 SLP103
T00001017





000
SAUS45 KLKN 010454
MTRP68
METAR KP68 010453Z AUTO 00000KT 00/M02 A2984 RMK AO1 SLP103
T00001017





000
SAUS45 KLKN 010354
MTRP68
METAR KP68 010353Z AUTO 32005KT M01/M02 A2982 RMK AO1 SLP102
T10061022





000
SAUS45 KLKN 010254
MTRP68
METAR KP68 010253Z AUTO 33004KT M01/M02 A2979 RMK AO1 SLP093
T10061022 53022





000
SAUS45 KLKN 010254
MTRP68
METAR KP68 010253Z AUTO 33004KT M01/M02 A2979 RMK AO1 SLP093
T10061022 53022





000
SAUS45 KLKN 010154
MTRP68
METAR KP68 010153Z AUTO 01006KT 00/M03 A2976 RMK AO1 SLP080
T00001028





000
SAUS45 KLKN 010154
MTRP68
METAR KP68 010153Z AUTO 01006KT 00/M03 A2976 RMK AO1 SLP080
T00001028





000
SAUS45 KLKN 010055
MTRP68
METAR KP68 010053Z AUTO 35004KT 02/M03 A2974 RMK AO1 SLP067
T00221028





000
SAUS45 KLKN 010055
MTRP68
METAR KP68 010053Z AUTO 35004KT 02/M03 A2974 RMK AO1 SLP067
T00221028





000
SAUS45 KLKN 282355
MTRP68
METAR KP68 282353Z AUTO 33008KT 02/M02 A2972 RMK AO1 SLP065
T00171022 10039 20000 53015





000
SAUS45 KLKN 282355
MTRP68
METAR KP68 282353Z AUTO 33008KT 02/M02 A2972 RMK AO1 SLP065
T00171022 10039 20000 53015





000
SAUS45 KLKN 282255
MTRP68
METAR KP68 282253Z AUTO 33012KT 02/M01 A2970 RMK AO1 SLP049
T00221011





000
SAUS45 KLKN 282155
MTRP68
METAR KP68 282153Z AUTO 01009KT 03/M03 A2968 RMK AO1 SLP039
T00331028





000
SAUS45 KLKN 282054
MTRP68
METAR KP68 282053Z AUTO 06005KT 03/M02 A2967 RMK AO1 SLP038
T00331022 58002





000
SAUS45 KLKN 282054
MTRP68
METAR KP68 282053Z AUTO 06005KT 03/M02 A2967 RMK AO1 SLP038
T00331022 58002





000
SAUS45 KLKN 281954
MTRP68
METAR KP68 281953Z AUTO 15003KT 02/M02 A2967 RMK AO1 SLP041
T00171017





000
SAUS45 KLKN 281954
MTRP68
METAR KP68 281953Z AUTO 15003KT 02/M02 A2967 RMK AO1 SLP041
T00171017





000
SAUS45 KLKN 281854
MTRP68
METAR KP68 281853Z AUTO 00000KT 01/M02 A2967 RMK AO1 SLP043
T00111022





000
SAUS45 KLKN 281854
MTRP68
METAR KP68 281853Z AUTO 00000KT 01/M02 A2967 RMK AO1 SLP043
T00111022





000
SAUS45 KLKN 281755
MTRP68
METAR KP68 281753Z AUTO 07005KT M01/M03 A2967 RMK AO1 SLP045
T10061028 10017 21061 51014





000
SAUS45 KLKN 281755
MTRP68
METAR KP68 281753Z AUTO 07005KT M01/M03 A2967 RMK AO1 SLP045
T10061028 10017 21061 51014





000
SAUS45 KLKN 281655
MTRP68
METAR KP68 281653Z AUTO 25003KT 00/M02 A2965 RMK AO1 SLP036
T00001022





000
SAUS45 KLKN 281655
MTRP68
METAR KP68 281653Z AUTO 25003KT 00/M02 A2965 RMK AO1 SLP036
T00001022





000
SAUS45 KLKN 281555
MTRP68
METAR KP68 281553Z AUTO 22004KT M03/M04 A2964 RMK AO1 SLP036
T10281039





000
SAUS45 KLKN 281555
MTRP68
METAR KP68 281553Z AUTO 22004KT M03/M04 A2964 RMK AO1 SLP036
T10281039





000
SAUS45 KLKN 281455
MTRP68
METAR KP68 281453Z AUTO 23003KT M03/M04 A2962 RMK AO1 SLP027
T10331044 51008





000
SAUS45 KLKN 281455
MTRP68
METAR KP68 281453Z AUTO 23003KT M03/M04 A2962 RMK AO1 SLP027
T10331044 51008





000
SAUS45 KLKN 281354
MTRP68
METAR KP68 281353Z AUTO 12003KT M03/M05 A2961 RMK AO1 SLP026
T10281050





000
SAUS45 KLKN 281354
MTRP68
METAR KP68 281353Z AUTO 12003KT M03/M05 A2961 RMK AO1 SLP026
T10281050





000
SAUS45 KLKN 281254
MTRP68
METAR KP68 281253Z AUTO 00000KT M03/M04 A2960 RMK AO1 SLP020
T10331044





000
SAUS45 KLKN 281254
MTRP68
METAR KP68 281253Z AUTO 00000KT M03/M04 A2960 RMK AO1 SLP020
T10331044





000
SAUS45 KLKN 281155
MTRP68
METAR KP68 281153Z AUTO 25004KT M06/M07 A2959 RMK AO1 SLP021 70024
T10561067 11006 21056 58001





000
SAUS45 KLKN 281155
MTRP68
METAR KP68 281153Z AUTO 25004KT M06/M07 A2959 RMK AO1 SLP021 70024
T10561067 11006 21056 58001





000
SAUS45 KLKN 281055
MTRP68
METAR KP68 281053Z AUTO 18003KT M02/M03 A2959 RMK AO1 SLP005
T10171033





000
SAUS45 KLKN 281055
MTRP68
METAR KP68 281053Z AUTO 18003KT M02/M03 A2959 RMK AO1 SLP005
T10171033





000
SAUS45 KLKN 280955
MTRP68
METAR KP68 280953Z AUTO 22003KT M02/M03 A2960 RMK AO1 SLP010
T10171033





000
SAUS45 KLKN 280854
MTRP68
METAR KP68 280853Z AUTO 25003KT M02/M03 A2960 RMK AO1 SLP011
T10221033 56007





000
SAUS45 KLKN 280754
MTRP68
METAR KP68 280753Z AUTO 20003KT M01/M02 A2960 RMK AO1 SLP006
T10111022 400781078





000
SAUS45 KLKN 280655
MTRP68
METAR KP68 280653Z AUTO 22003KT M01/M02 A2961 RMK AO1 SLP012
T10111022





000
SAUS45 KLKN 280655
MTRP68
METAR KP68 280653Z AUTO 22003KT M01/M02 A2961 RMK AO1 SLP012
T10111022





000
SAUS45 KLKN 280555
MTRP68
METAR KP68 280553Z AUTO 00000KT M01/M02 A2962 RMK AO1 SLP019 60022
T10061017 10022 21006 50005





000
SAUS45 KLKN 280555
MTRP68
METAR KP68 280553Z AUTO 00000KT M01/M02 A2962 RMK AO1 SLP019 60022
T10061017 10022 21006 50005





000
SAUS45 KLKN 280454
MTRP68
METAR KP68 280453Z AUTO 00000KT M01/M02 A2962 RMK AO1 SLP025 P0014
T10061017





000
SAUS45 KLKN 280454
MTRP68
METAR KP68 280453Z AUTO 00000KT M01/M02 A2962 RMK AO1 SLP025 P0014
T10061017





000
SAUS45 KLKN 280354
MTRP68
METAR KP68 280353Z AUTO 30006KT 00/M01 A2962 RMK AO1 SLP027 P0008
T00001011





000
SAUS45 KLKN 280255
MTRP68
METAR KP68 280253Z AUTO 18004KT 02/M03 A2960 RMK AO1 SLP025
T00171028 55006





000
SAUS45 KLKN 280255
MTRP68
METAR KP68 280253Z AUTO 18004KT 02/M03 A2960 RMK AO1 SLP025
T00171028 55006





000
SAUS45 KLKN 280155
MTRP68
METAR KP68 280153Z AUTO 14008KT 01/M02 A2960 RMK AO1 SLP026
T00061017





000
SAUS45 KLKN 280155
MTRP68
METAR KP68 280153Z AUTO 14008KT 01/M02 A2960 RMK AO1 SLP026
T00061017





000
SAUS45 KLKN 280055
MTRP68
METAR KP68 280053Z AUTO 10008KT 02/M01 A2961 RMK AO1 SLP029
T00171006





000
SAUS45 KLKN 280055
MTRP68
METAR KP68 280053Z AUTO 10008KT 02/M01 A2961 RMK AO1 SLP029
T00171006





000
SAUS45 KLKN 272355
MTRP68
METAR KP68 272353Z AUTO 04003KT 02/M01 A2962 RMK AO1 SLP030 P0001
60002 T00171011 10078 20017 55014





000
SAUS45 KLKN 272355
MTRP68
METAR KP68 272353Z AUTO 04003KT 02/M01 A2962 RMK AO1 SLP030 P0001
60002 T00171011 10078 20017 55014





000
SAUS45 KLKN 272255
MTRP68
METAR KP68 272253Z AUTO VRB04KT 06/M07 A2960 RMK AO1 SLP013
T00611067





000
SAUS45 KLKN 272255
MTRP68
METAR KP68 272253Z AUTO VRB04KT 06/M07 A2960 RMK AO1 SLP013
T00611067





000
SAUS45 KLKN 272154
MTRP68
METAR KP68 272153Z AUTO 00000KT 05/M06 A2963 RMK AO1 SLP030
T00501056





000
SAUS45 KLKN 272054
MTRP68
METAR KP68 272053Z AUTO VRB05KT 04/M03 A2967 RMK AO1 SLP048 P0001
60001 T00391028 56024





000
SAUS45 KLKN 272054
MTRP68
METAR KP68 272053Z AUTO VRB05KT 04/M03 A2967 RMK AO1 SLP048 P0001
60001 T00391028 56024





000
SAUS45 KLKN 271954
MTRP68
METAR KP68 271953Z AUTO VRB03KT 06/M09 A2970 RMK AO1 SLP052
T00561094





000
SAUS45 KLKN 271954
MTRP68
METAR KP68 271953Z AUTO VRB03KT 06/M09 A2970 RMK AO1 SLP052
T00561094





    US Dept of Commerce
    National Oceanic and Atmospheric Administration
    National Weather Service
    1325 East West Highway
    Silver Spring, MD 20910
    Page Author: NWS Internet Services Team
Disclaimer
Information Quality
Credits
Glossary
Privacy Policy
Freedom of Information Act (FOIA)
About Us
Career Opportunities